sensor_id;sensor_type;location;lat;lon;timestamp;P1;durP1;ratioP1;P2;durP2;ratioP2
9950;SDS011;24074;49.254;6.702;2022-12-07T00:01:12;7.83;;;6.70;;
9950;SDS011;24074;49.254;6.702;2022-12-07T00:03:43;8.00;;;6.53;;
9950;SDS011;24074;49.254;6.702;2022-12-07T00:06:11;9.20;;;7.10;;
9950;SDS011;24074;49.254;6.702;2022-12-07T00:08:37;11.00;;;8.00;;
9950;SDS011;24074;49.254;6.702;2022-12-07T00:11:05;9.50;;;7.63;;
9950;SDS011;24074;49.254;6.702;2022-12-07T00:13:36;9.67;;;7.30;;
9950;SDS011;24074;49.254;6.702;2022-12-07T00:16:03;7.80;;;6.40;;
9950;SDS011;24074;49.254;6.702;2022-12-07T00:18:32;8.70;;;7.17;;
9950;SDS011;24074;49.254;6.702;2022-12-07T00:21:32;8.73;;;7.00;;
9950;SDS011;24074;49.254;6.702;2022-12-07T00:23:52;8.47;;;7.07;;
9950;SDS011;24074;49.254;6.702;2022-12-07T00:26:20;9.77;;;7.80;;
9950;SDS011;24074;49.254;6.702;2022-12-07T00:28:54;9.27;;;7.40;;
9950;SDS011;24074;49.254;6.702;2022-12-07T00:31:23;10.40;;;7.97;;
9950;SDS011;24074;49.254;6.702;2022-12-07T00:33:50;10.67;;;7.77;;
9950;SDS011;24074;49.254;6.702;2022-12-07T00:36:16;8.73;;;7.57;;
9950;SDS011;24074;49.254;6.702;2022-12-07T00:38:44;8.90;;;7.53;;
9950;SDS011;24074;49.254;6.702;2022-12-07T00:41:14;9.27;;;7.00;;
9950;SDS011;24074;49.254;6.702;2022-12-07T00:43:42;8.83;;;7.47;;
9950;SDS011;24074;49.254;6.702;2022-12-07T00:46:08;9.60;;;7.87;;
9950;SDS011;24074;49.254;6.702;2022-12-07T00:48:34;8.87;;;7.17;;
9950;SDS011;24074;49.254;6.702;2022-12-07T00:51:00;9.40;;;7.27;;
9950;SDS011;24074;49.254;6.702;2022-12-07T00:53:26;8.33;;;7.10;;
9950;SDS011;24074;49.254;6.702;2022-12-07T00:55:52;10.50;;;8.47;;
9950;SDS011;24074;49.254;6.702;2022-12-07T00:58:18;9.10;;;7.37;;
9950;SDS011;24074;49.254;6.702;2022-12-07T01:00:44;10.87;;;7.93;;
9950;SDS011;24074;49.254;6.702;2022-12-07T01:03:11;9.47;;;7.70;;
9950;SDS011;24074;49.254;6.702;2022-12-07T01:05:38;10.80;;;7.90;;
9950;SDS011;24074;49.254;6.702;2022-12-07T01:08:04;10.60;;;7.23;;
9950;SDS011;24074;49.254;6.702;2022-12-07T01:10:30;10.43;;;8.10;;
9950;SDS011;24074;49.254;6.702;2022-12-07T01:12:56;10.87;;;7.70;;
9950;SDS011;24074;49.254;6.702;2022-12-07T01:15:23;9.20;;;6.90;;
9950;SDS011;24074;49.254;6.702;2022-12-07T01:17:49;10.03;;;7.43;;
9950;SDS011;24074;49.254;6.702;2022-12-07T01:20:15;9.90;;;7.40;;
9950;SDS011;24074;49.254;6.702;2022-12-07T01:22:41;9.33;;;7.07;;
9950;SDS011;24074;49.254;6.702;2022-12-07T01:25:08;11.37;;;7.60;;
9950;SDS011;24074;49.254;6.702;2022-12-07T01:27:36;11.50;;;7.83;;
9950;SDS011;24074;49.254;6.702;2022-12-07T01:30:02;10.07;;;7.67;;
9950;SDS011;24074;49.254;6.702;2022-12-07T01:32:29;11.30;;;8.23;;
9950;SDS011;24074;49.254;6.702;2022-12-07T01:34:55;10.97;;;7.87;;
9950;SDS011;24074;49.254;6.702;2022-12-07T01:37:21;12.70;;;7.83;;
9950;SDS011;24074;49.254;6.702;2022-12-07T01:39:49;10.07;;;7.23;;
9950;SDS011;24074;49.254;6.702;2022-12-07T01:42:17;8.60;;;7.00;;
9950;SDS011;24074;49.254;6.702;2022-12-07T01:47:43;12.50;;;7.57;;
9950;SDS011;24074;49.254;6.702;2022-12-07T01:50:16;11.60;;;7.57;;
9950;SDS011;24074;49.254;6.702;2022-12-07T01:52:42;11.03;;;7.20;;
9950;SDS011;24074;49.254;6.702;2022-12-07T01:55:13;9.53;;;7.10;;
9950;SDS011;24074;49.254;6.702;2022-12-07T01:57:41;9.93;;;7.60;;
9950;SDS011;24074;49.254;6.702;2022-12-07T02:00:11;11.20;;;8.20;;
9950;SDS011;24074;49.254;6.702;2022-12-07T02:02:37;10.50;;;7.23;;
9950;SDS011;24074;49.254;6.702;2022-12-07T02:05:09;9.70;;;7.20;;
9950;SDS011;24074;49.254;6.702;2022-12-07T02:07:36;9.70;;;7.03;;
9950;SDS011;24074;49.254;6.702;2022-12-07T02:10:12;9.37;;;7.47;;
9950;SDS011;24074;49.254;6.702;2022-12-07T02:12:47;9.03;;;7.10;;
9950;SDS011;24074;49.254;6.702;2022-12-07T02:15:16;9.10;;;7.13;;
9950;SDS011;24074;49.254;6.702;2022-12-07T02:17:58;8.50;;;6.63;;
9950;SDS011;24074;49.254;6.702;2022-12-07T02:20:57;9.00;;;7.27;;
9950;SDS011;24074;49.254;6.702;2022-12-07T02:26:37;9.70;;;6.80;;
9950;SDS011;24074;49.254;6.702;2022-12-07T02:29:33;9.27;;;6.60;;
9950;SDS011;24074;49.254;6.702;2022-12-07T02:34:49;10.37;;;7.57;;
9950;SDS011;24074;49.254;6.702;2022-12-07T02:37:39;9.70;;;7.27;;
9950;SDS011;24074;49.254;6.702;2022-12-07T02:42:56;9.33;;;7.03;;
9950;SDS011;24074;49.254;6.702;2022-12-07T02:45:30;9.67;;;7.30;;
9950;SDS011;24074;49.254;6.702;2022-12-07T02:47:57;9.73;;;7.90;;
9950;SDS011;24074;49.254;6.702;2022-12-07T02:50:25;10.57;;;7.60;;
9950;SDS011;24074;49.254;6.702;2022-12-07T02:52:51;10.57;;;7.83;;
9950;SDS011;24074;49.254;6.702;2022-12-07T02:55:17;9.03;;;7.57;;
9950;SDS011;24074;49.254;6.702;2022-12-07T03:00:44;10.27;;;8.00;;
9950;SDS011;24074;49.254;6.702;2022-12-07T03:03:18;13.47;;;7.80;;
9950;SDS011;24074;49.254;6.702;2022-12-07T03:06:03;10.90;;;8.10;;
9950;SDS011;24074;49.254;6.702;2022-12-07T03:08:44;10.47;;;8.10;;
9950;SDS011;24074;49.254;6.702;2022-12-07T03:11:16;9.57;;;7.90;;
9950;SDS011;24074;49.254;6.702;2022-12-07T03:13:59;10.07;;;7.50;;
9950;SDS011;24074;49.254;6.702;2022-12-07T03:16:41;12.17;;;8.03;;
9950;SDS011;24074;49.254;6.702;2022-12-07T03:19:15;12.83;;;8.47;;
9950;SDS011;24074;49.254;6.702;2022-12-07T03:21:46;11.83;;;8.00;;
9950;SDS011;24074;49.254;6.702;2022-12-07T03:24:21;11.33;;;7.63;;
9950;SDS011;24074;49.254;6.702;2022-12-07T03:26:56;11.33;;;8.03;;
9950;SDS011;24074;49.254;6.702;2022-12-07T03:29:34;12.20;;;7.53;;
9950;SDS011;24074;49.254;6.702;2022-12-07T03:32:05;11.47;;;8.00;;
9950;SDS011;24074;49.254;6.702;2022-12-07T03:34:53;11.40;;;8.07;;
9950;SDS011;24074;49.254;6.702;2022-12-07T03:40:21;10.23;;;7.80;;
9950;SDS011;24074;49.254;6.702;2022-12-07T03:42:56;9.13;;;7.93;;
9950;SDS011;24074;49.254;6.702;2022-12-07T03:53:40;10.67;;;7.97;;
9950;SDS011;24074;49.254;6.702;2022-12-07T03:56:11;9.87;;;7.53;;
9950;SDS011;24074;49.254;6.702;2022-12-07T03:58:37;10.40;;;7.67;;
9950;SDS011;24074;49.254;6.702;2022-12-07T04:01:04;10.10;;;7.63;;
9950;SDS011;24074;49.254;6.702;2022-12-07T04:03:30;11.27;;;7.73;;
9950;SDS011;24074;49.254;6.702;2022-12-07T04:05:56;10.50;;;7.60;;
9950;SDS011;24074;49.254;6.702;2022-12-07T04:08:23;10.30;;;7.90;;
9950;SDS011;24074;49.254;6.702;2022-12-07T04:10:49;10.17;;;7.80;;
9950;SDS011;24074;49.254;6.702;2022-12-07T04:13:15;10.00;;;7.27;;
9950;SDS011;24074;49.254;6.702;2022-12-07T04:15:40;11.27;;;8.17;;
9950;SDS011;24074;49.254;6.702;2022-12-07T04:18:06;10.63;;;7.73;;
9950;SDS011;24074;49.254;6.702;2022-12-07T04:20:31;11.77;;;8.60;;
9950;SDS011;24074;49.254;6.702;2022-12-07T04:22:57;9.33;;;7.27;;
9950;SDS011;24074;49.254;6.702;2022-12-07T04:25:22;10.43;;;7.67;;
9950;SDS011;24074;49.254;6.702;2022-12-07T04:27:48;10.20;;;7.93;;
9950;SDS011;24074;49.254;6.702;2022-12-07T04:30:14;11.53;;;8.13;;
9950;SDS011;24074;49.254;6.702;2022-12-07T04:32:39;11.43;;;8.43;;
9950;SDS011;24074;49.254;6.702;2022-12-07T04:35:05;12.60;;;8.60;;
9950;SDS011;24074;49.254;6.702;2022-12-07T04:37:31;12.17;;;8.57;;
9950;SDS011;24074;49.254;6.702;2022-12-07T04:39:57;11.47;;;7.73;;
9950;SDS011;24074;49.254;6.702;2022-12-07T04:42:22;12.67;;;8.87;;
9950;SDS011;24074;49.254;6.702;2022-12-07T04:44:48;11.93;;;8.77;;
9950;SDS011;24074;49.254;6.702;2022-12-07T04:47:14;11.93;;;8.23;;
9950;SDS011;24074;49.254;6.702;2022-12-07T04:49:39;11.67;;;8.90;;
9950;SDS011;24074;49.254;6.702;2022-12-07T04:52:05;12.23;;;8.20;;
9950;SDS011;24074;49.254;6.702;2022-12-07T04:54:30;12.80;;;8.87;;
9950;SDS011;24074;49.254;6.702;2022-12-07T04:56:56;12.53;;;8.53;;
9950;SDS011;24074;49.254;6.702;2022-12-07T04:59:21;12.87;;;8.70;;
9950;SDS011;24074;49.254;6.702;2022-12-07T05:01:47;12.37;;;8.80;;
9950;SDS011;24074;49.254;6.702;2022-12-07T05:04:13;13.17;;;9.60;;
9950;SDS011;24074;49.254;6.702;2022-12-07T05:06:38;12.57;;;8.97;;
9950;SDS011;24074;49.254;6.702;2022-12-07T05:09:04;11.03;;;8.10;;
9950;SDS011;24074;49.254;6.702;2022-12-07T05:11:30;11.80;;;8.40;;
9950;SDS011;24074;49.254;6.702;2022-12-07T05:14:10;13.07;;;9.77;;
9950;SDS011;24074;49.254;6.702;2022-12-07T05:16:41;13.37;;;9.77;;
9950;SDS011;24074;49.254;6.702;2022-12-07T05:19:07;14.00;;;9.80;;
9950;SDS011;24074;49.254;6.702;2022-12-07T05:21:33;13.07;;;9.27;;
9950;SDS011;24074;49.254;6.702;2022-12-07T05:23:59;12.83;;;9.77;;
9950;SDS011;24074;49.254;6.702;2022-12-07T05:26:25;15.33;;;9.57;;
9950;SDS011;24074;49.254;6.702;2022-12-07T05:28:52;14.77;;;10.10;;
9950;SDS011;24074;49.254;6.702;2022-12-07T05:31:18;14.53;;;9.70;;
9950;SDS011;24074;49.254;6.702;2022-12-07T05:33:44;14.37;;;9.10;;
9950;SDS011;24074;49.254;6.702;2022-12-07T05:36:10;15.27;;;9.77;;
9950;SDS011;24074;49.254;6.702;2022-12-07T05:38:35;13.63;;;9.00;;
9950;SDS011;24074;49.254;6.702;2022-12-07T05:41:01;14.43;;;9.73;;
9950;SDS011;24074;49.254;6.702;2022-12-07T05:43:29;15.70;;;9.23;;
9950;SDS011;24074;49.254;6.702;2022-12-07T05:45:55;14.30;;;9.27;;
9950;SDS011;24074;49.254;6.702;2022-12-07T05:48:20;14.30;;;9.43;;
9950;SDS011;24074;49.254;6.702;2022-12-07T05:50:49;14.83;;;9.83;;
9950;SDS011;24074;49.254;6.702;2022-12-07T05:53:15;14.53;;;10.07;;
9950;SDS011;24074;49.254;6.702;2022-12-07T05:55:42;16.70;;;10.03;;
9950;SDS011;24074;49.254;6.702;2022-12-07T05:58:08;13.93;;;9.70;;
9950;SDS011;24074;49.254;6.702;2022-12-07T06:00:54;14.00;;;10.03;;
9950;SDS011;24074;49.254;6.702;2022-12-07T06:03:20;13.90;;;10.27;;
9950;SDS011;24074;49.254;6.702;2022-12-07T06:05:45;14.00;;;10.57;;
9950;SDS011;24074;49.254;6.702;2022-12-07T06:08:11;15.13;;;10.77;;
9950;SDS011;24074;49.254;6.702;2022-12-07T06:10:37;16.50;;;10.97;;
9950;SDS011;24074;49.254;6.702;2022-12-07T06:13:02;14.83;;;10.63;;
9950;SDS011;24074;49.254;6.702;2022-12-07T06:15:28;15.60;;;10.90;;
9950;SDS011;24074;49.254;6.702;2022-12-07T06:17:53;16.00;;;11.10;;
9950;SDS011;24074;49.254;6.702;2022-12-07T06:20:19;16.03;;;10.73;;
9950;SDS011;24074;49.254;6.702;2022-12-07T06:22:44;13.57;;;10.73;;
9950;SDS011;24074;49.254;6.702;2022-12-07T06:25:10;16.27;;;10.70;;
9950;SDS011;24074;49.254;6.702;2022-12-07T06:27:36;17.00;;;10.80;;
9950;SDS011;24074;49.254;6.702;2022-12-07T06:30:01;14.00;;;10.87;;
9950;SDS011;24074;49.254;6.702;2022-12-07T06:32:31;14.40;;;10.53;;
9950;SDS011;24074;49.254;6.702;2022-12-07T06:34:58;16.63;;;11.73;;
9950;SDS011;24074;49.254;6.702;2022-12-07T06:37:24;17.07;;;11.40;;
9950;SDS011;24074;49.254;6.702;2022-12-07T06:39:49;14.30;;;10.97;;
9950;SDS011;24074;49.254;6.702;2022-12-07T06:42:15;17.00;;;11.40;;
9950;SDS011;24074;49.254;6.702;2022-12-07T06:44:43;16.40;;;11.07;;
9950;SDS011;24074;49.254;6.702;2022-12-07T06:47:09;15.93;;;11.03;;
9950;SDS011;24074;49.254;6.702;2022-12-07T06:49:36;16.43;;;11.70;;
9950;SDS011;24074;49.254;6.702;2022-12-07T06:52:01;16.33;;;11.80;;
9950;SDS011;24074;49.254;6.702;2022-12-07T06:54:27;17.73;;;11.13;;
9950;SDS011;24074;49.254;6.702;2022-12-07T06:56:55;16.37;;;11.67;;
9950;SDS011;24074;49.254;6.702;2022-12-07T06:59:20;18.30;;;12.17;;
9950;SDS011;24074;49.254;6.702;2022-12-07T07:01:46;16.90;;;12.13;;
9950;SDS011;24074;49.254;6.702;2022-12-07T07:04:11;19.03;;;12.47;;
9950;SDS011;24074;49.254;6.702;2022-12-07T07:06:37;19.23;;;12.33;;
9950;SDS011;24074;49.254;6.702;2022-12-07T07:09:03;17.20;;;12.70;;
9950;SDS011;24074;49.254;6.702;2022-12-07T07:11:28;18.43;;;12.67;;
9950;SDS011;24074;49.254;6.702;2022-12-07T07:13:54;18.87;;;13.00;;
9950;SDS011;24074;49.254;6.702;2022-12-07T07:16:22;16.40;;;11.87;;
9950;SDS011;24074;49.254;6.702;2022-12-07T07:18:48;16.67;;;11.87;;
9950;SDS011;24074;49.254;6.702;2022-12-07T07:21:13;17.90;;;11.73;;
9950;SDS011;24074;49.254;6.702;2022-12-07T07:23:39;18.03;;;12.17;;
9950;SDS011;24074;49.254;6.702;2022-12-07T07:26:04;18.40;;;12.57;;
9950;SDS011;24074;49.254;6.702;2022-12-07T07:28:30;16.83;;;12.17;;
9950;SDS011;24074;49.254;6.702;2022-12-07T07:30:55;17.57;;;12.73;;
9950;SDS011;24074;49.254;6.702;2022-12-07T07:33:21;20.00;;;12.67;;
9950;SDS011;24074;49.254;6.702;2022-12-07T07:35:47;19.60;;;13.77;;
9950;SDS011;24074;49.254;6.702;2022-12-07T07:38:12;19.97;;;13.90;;
9950;SDS011;24074;49.254;6.702;2022-12-07T07:40:38;31.83;;;19.83;;
9950;SDS011;24074;49.254;6.702;2022-12-07T07:43:03;27.03;;;17.90;;
9950;SDS011;24074;49.254;6.702;2022-12-07T07:45:29;26.27;;;17.53;;
9950;SDS011;24074;49.254;6.702;2022-12-07T07:47:54;23.47;;;15.10;;
9950;SDS011;24074;49.254;6.702;2022-12-07T07:50:20;25.60;;;15.60;;
9950;SDS011;24074;49.254;6.702;2022-12-07T07:52:46;23.30;;;15.30;;
9950;SDS011;24074;49.254;6.702;2022-12-07T07:55:12;24.07;;;15.70;;
9950;SDS011;24074;49.254;6.702;2022-12-07T07:57:38;23.83;;;15.80;;
9950;SDS011;24074;49.254;6.702;2022-12-07T08:00:05;22.83;;;14.60;;
9950;SDS011;24074;49.254;6.702;2022-12-07T08:02:33;23.10;;;16.00;;
9950;SDS011;24074;49.254;6.702;2022-12-07T08:04:59;20.17;;;13.80;;
9950;SDS011;24074;49.254;6.702;2022-12-07T08:07:24;18.73;;;13.20;;
9950;SDS011;24074;49.254;6.702;2022-12-07T08:09:51;19.37;;;13.40;;
9950;SDS011;24074;49.254;6.702;2022-12-07T08:12:17;18.20;;;13.13;;
9950;SDS011;24074;49.254;6.702;2022-12-07T08:14:42;20.00;;;13.70;;
9950;SDS011;24074;49.254;6.702;2022-12-07T08:17:08;18.00;;;12.43;;
9950;SDS011;24074;49.254;6.702;2022-12-07T08:19:34;18.93;;;13.13;;
9950;SDS011;24074;49.254;6.702;2022-12-07T08:21:59;20.17;;;13.67;;
9950;SDS011;24074;49.254;6.702;2022-12-07T08:24:25;20.57;;;13.37;;
9950;SDS011;24074;49.254;6.702;2022-12-07T08:26:51;17.70;;;12.60;;
9950;SDS011;24074;49.254;6.702;2022-12-07T08:29:16;16.53;;;12.33;;
9950;SDS011;24074;49.254;6.702;2022-12-07T08:31:42;19.10;;;12.80;;
9950;SDS011;24074;49.254;6.702;2022-12-07T08:34:10;19.00;;;13.43;;
9950;SDS011;24074;49.254;6.702;2022-12-07T08:36:36;19.53;;;13.20;;
9950;SDS011;24074;49.254;6.702;2022-12-07T08:39:02;17.17;;;12.43;;
9950;SDS011;24074;49.254;6.702;2022-12-07T08:41:28;18.60;;;12.63;;
9950;SDS011;24074;49.254;6.702;2022-12-07T08:43:54;19.70;;;13.40;;
9950;SDS011;24074;49.254;6.702;2022-12-07T08:48:55;18.70;;;12.47;;
9950;SDS011;24074;49.254;6.702;2022-12-07T08:51:24;18.70;;;13.67;;
9950;SDS011;24074;49.254;6.702;2022-12-07T08:53:50;18.67;;;13.50;;
9950;SDS011;24074;49.254;6.702;2022-12-07T08:56:17;21.07;;;13.53;;
9950;SDS011;24074;49.254;6.702;2022-12-07T08:58:44;21.43;;;13.93;;
9950;SDS011;24074;49.254;6.702;2022-12-07T09:01:10;19.23;;;13.87;;
9950;SDS011;24074;49.254;6.702;2022-12-07T09:03:35;17.33;;;12.60;;
9950;SDS011;24074;49.254;6.702;2022-12-07T09:06:01;18.77;;;13.40;;
9950;SDS011;24074;49.254;6.702;2022-12-07T09:08:29;18.97;;;13.80;;
9950;SDS011;24074;49.254;6.702;2022-12-07T09:10:58;21.90;;;13.77;;
9950;SDS011;24074;49.254;6.702;2022-12-07T09:13:24;21.50;;;14.37;;
9950;SDS011;24074;49.254;6.702;2022-12-07T09:15:50;21.10;;;14.20;;
9950;SDS011;24074;49.254;6.702;2022-12-07T09:18:15;20.33;;;13.77;;
9950;SDS011;24074;49.254;6.702;2022-12-07T09:20:41;20.70;;;13.60;;
9950;SDS011;24074;49.254;6.702;2022-12-07T09:23:09;21.07;;;14.10;;
9950;SDS011;24074;49.254;6.702;2022-12-07T09:25:35;19.67;;;13.73;;
9950;SDS011;24074;49.254;6.702;2022-12-07T09:28:01;19.90;;;14.50;;
9950;SDS011;24074;49.254;6.702;2022-12-07T09:30:27;22.07;;;14.90;;
9950;SDS011;24074;49.254;6.702;2022-12-07T09:32:54;20.97;;;13.77;;
9950;SDS011;24074;49.254;6.702;2022-12-07T09:35:20;20.80;;;13.70;;
9950;SDS011;24074;49.254;6.702;2022-12-07T09:37:46;21.73;;;14.23;;
9950;SDS011;24074;49.254;6.702;2022-12-07T09:40:12;18.60;;;13.50;;
9950;SDS011;24074;49.254;6.702;2022-12-07T09:42:41;19.23;;;13.57;;
9950;SDS011;24074;49.254;6.702;2022-12-07T09:45:14;18.07;;;13.43;;
9950;SDS011;24074;49.254;6.702;2022-12-07T09:47:42;18.87;;;13.33;;
9950;SDS011;24074;49.254;6.702;2022-12-07T09:50:16;20.13;;;13.63;;
9950;SDS011;24074;49.254;6.702;2022-12-07T09:52:44;20.03;;;13.03;;
9950;SDS011;24074;49.254;6.702;2022-12-07T09:55:13;17.67;;;12.27;;
9950;SDS011;24074;49.254;6.702;2022-12-07T09:57:51;17.37;;;12.60;;
9950;SDS011;24074;49.254;6.702;2022-12-07T10:00:19;17.97;;;12.67;;
9950;SDS011;24074;49.254;6.702;2022-12-07T10:02:49;16.93;;;12.17;;
9950;SDS011;24074;49.254;6.702;2022-12-07T10:05:16;18.70;;;12.93;;
9950;SDS011;24074;49.254;6.702;2022-12-07T10:07:47;17.13;;;12.07;;
9950;SDS011;24074;49.254;6.702;2022-12-07T10:10:13;15.03;;;11.27;;
9950;SDS011;24074;49.254;6.702;2022-12-07T10:12:53;15.83;;;11.20;;
9950;SDS011;24074;49.254;6.702;2022-12-07T10:15:19;17.80;;;12.27;;
9950;SDS011;24074;49.254;6.702;2022-12-07T10:17:49;16.37;;;11.53;;
9950;SDS011;24074;49.254;6.702;2022-12-07T10:20:23;18.23;;;12.50;;
9950;SDS011;24074;49.254;6.702;2022-12-07T10:22:56;16.97;;;12.17;;
9950;SDS011;24074;49.254;6.702;2022-12-07T10:25:25;13.83;;;10.33;;
9950;SDS011;24074;49.254;6.702;2022-12-07T10:27:58;15.03;;;11.37;;
9950;SDS011;24074;49.254;6.702;2022-12-07T10:30:23;15.40;;;11.20;;
9950;SDS011;24074;49.254;6.702;2022-12-07T10:32:49;14.23;;;10.87;;
9950;SDS011;24074;49.254;6.702;2022-12-07T10:35:25;16.80;;;11.87;;
9950;SDS011;24074;49.254;6.702;2022-12-07T10:37:57;16.00;;;11.10;;
9950;SDS011;24074;49.254;6.702;2022-12-07T10:45:41;16.90;;;11.70;;
9950;SDS011;24074;49.254;6.702;2022-12-07T10:48:16;16.20;;;11.43;;
9950;SDS011;24074;49.254;6.702;2022-12-07T10:56:14;17.07;;;11.23;;
9950;SDS011;24074;49.254;6.702;2022-12-07T11:01:50;12.90;;;10.17;;
9950;SDS011;24074;49.254;6.702;2022-12-07T11:04:29;12.40;;;10.13;;
9950;SDS011;24074;49.254;6.702;2022-12-07T11:07:14;11.53;;;8.67;;
9950;SDS011;24074;49.254;6.702;2022-12-07T11:09:57;11.27;;;8.77;;
9950;SDS011;24074;49.254;6.702;2022-12-07T11:17:56;11.67;;;8.20;;
9950;SDS011;24074;49.254;6.702;2022-12-07T11:23:45;12.63;;;7.67;;
9950;SDS011;24074;49.254;6.702;2022-12-07T11:37:19;7.07;;;5.00;;
9950;SDS011;24074;49.254;6.702;2022-12-07T11:39:51;8.17;;;5.13;;
9950;SDS011;24074;49.254;6.702;2022-12-07T11:45:00;5.80;;;5.00;;
9950;SDS011;24074;49.254;6.702;2022-12-07T11:47:34;6.67;;;4.80;;
9950;SDS011;24074;49.254;6.702;2022-12-07T11:50:40;5.90;;;4.93;;
9950;SDS011;24074;49.254;6.702;2022-12-07T11:56:11;7.50;;;5.43;;
9950;SDS011;24074;49.254;6.702;2022-12-07T12:06:36;6.50;;;5.20;;
9950;SDS011;24074;49.254;6.702;2022-12-07T12:25:26;7.30;;;5.10;;
9950;SDS011;24074;49.254;6.702;2022-12-07T12:28:02;6.27;;;5.03;;
9950;SDS011;24074;49.254;6.702;2022-12-07T12:33:57;6.30;;;4.90;;
9950;SDS011;24074;49.254;6.702;2022-12-07T12:46:47;7.27;;;5.77;;
9950;SDS011;24074;49.254;6.702;2022-12-07T12:54:23;8.17;;;5.53;;
9950;SDS011;24074;49.254;6.702;2022-12-07T12:59:22;9.63;;;6.00;;
9950;SDS011;24074;49.254;6.702;2022-12-07T13:01:55;7.27;;;5.80;;
9950;SDS011;24074;49.254;6.702;2022-12-07T13:13:05;7.37;;;5.37;;
9950;SDS011;24074;49.254;6.702;2022-12-07T13:15:49;7.63;;;5.33;;
9950;SDS011;24074;49.254;6.702;2022-12-07T13:28:40;6.60;;;5.20;;
9950;SDS011;24074;49.254;6.702;2022-12-07T13:31:15;6.77;;;5.63;;
9950;SDS011;24074;49.254;6.702;2022-12-07T13:33:55;7.30;;;5.37;;
9950;SDS011;24074;49.254;6.702;2022-12-07T13:36:22;7.40;;;5.37;;
9950;SDS011;24074;49.254;6.702;2022-12-07T13:38:54;7.27;;;5.27;;
9950;SDS011;24074;49.254;6.702;2022-12-07T13:41:25;7.63;;;5.03;;
9950;SDS011;24074;49.254;6.702;2022-12-07T13:43:54;6.20;;;5.00;;
9950;SDS011;24074;49.254;6.702;2022-12-07T13:46:26;6.77;;;5.37;;
9950;SDS011;24074;49.254;6.702;2022-12-07T13:49:24;6.37;;;4.63;;
9950;SDS011;24074;49.254;6.702;2022-12-07T13:51:54;7.83;;;5.07;;
9950;SDS011;24074;49.254;6.702;2022-12-07T13:54:32;6.73;;;4.93;;
9950;SDS011;24074;49.254;6.702;2022-12-07T13:56:57;6.33;;;4.63;;
9950;SDS011;24074;49.254;6.702;2022-12-07T13:59:24;7.03;;;4.80;;
9950;SDS011;24074;49.254;6.702;2022-12-07T14:01:51;6.00;;;4.43;;
9950;SDS011;24074;49.254;6.702;2022-12-07T14:06:53;6.43;;;4.83;;
9950;SDS011;24074;49.254;6.702;2022-12-07T14:09:25;7.03;;;4.80;;
9950;SDS011;24074;49.254;6.702;2022-12-07T14:11:53;6.43;;;4.80;;
9950;SDS011;24074;49.254;6.702;2022-12-07T14:14:22;6.60;;;5.00;;
9950;SDS011;24074;49.254;6.702;2022-12-07T14:19:41;5.97;;;4.10;;
9950;SDS011;24074;49.254;6.702;2022-12-07T14:22:21;5.63;;;4.50;;
9950;SDS011;24074;49.254;6.702;2022-12-07T14:24:50;4.73;;;3.57;;
9950;SDS011;24074;49.254;6.702;2022-12-07T14:27:23;4.40;;;3.77;;
9950;SDS011;24074;49.254;6.702;2022-12-07T14:29:55;5.10;;;3.70;;
9950;SDS011;24074;49.254;6.702;2022-12-07T14:37:24;5.93;;;3.93;;
9950;SDS011;24074;49.254;6.702;2022-12-07T14:39:50;4.90;;;3.80;;
9950;SDS011;24074;49.254;6.702;2022-12-07T14:42:16;6.30;;;3.83;;
9950;SDS011;24074;49.254;6.702;2022-12-07T14:44:42;5.43;;;3.83;;
9950;SDS011;24074;49.254;6.702;2022-12-07T14:47:09;5.80;;;4.10;;
9950;SDS011;24074;49.254;6.702;2022-12-07T14:49:36;4.20;;;3.50;;
9950;SDS011;24074;49.254;6.702;2022-12-07T14:52:01;5.30;;;3.83;;
9950;SDS011;24074;49.254;6.702;2022-12-07T14:54:27;4.23;;;3.50;;
9950;SDS011;24074;49.254;6.702;2022-12-07T14:56:57;6.63;;;3.70;;
9950;SDS011;24074;49.254;6.702;2022-12-07T14:59:23;5.07;;;3.93;;
9950;SDS011;24074;49.254;6.702;2022-12-07T15:01:48;5.43;;;4.00;;
9950;SDS011;24074;49.254;6.702;2022-12-07T15:04:14;5.27;;;4.20;;
9950;SDS011;24074;49.254;6.702;2022-12-07T15:06:40;6.50;;;4.20;;
9950;SDS011;24074;49.254;6.702;2022-12-07T15:09:08;6.67;;;4.60;;
9950;SDS011;24074;49.254;6.702;2022-12-07T15:11:36;7.87;;;5.57;;
9950;SDS011;24074;49.254;6.702;2022-12-07T15:14:01;8.43;;;5.20;;
9950;SDS011;24074;49.254;6.702;2022-12-07T15:16:33;6.87;;;5.40;;
9950;SDS011;24074;49.254;6.702;2022-12-07T15:18:59;7.83;;;5.27;;
9950;SDS011;24074;49.254;6.702;2022-12-07T15:21:25;7.67;;;5.40;;
9950;SDS011;24074;49.254;6.702;2022-12-07T15:23:51;9.07;;;5.87;;
9950;SDS011;24074;49.254;6.702;2022-12-07T15:26:16;8.33;;;6.00;;
9950;SDS011;24074;49.254;6.702;2022-12-07T15:28:42;9.70;;;7.00;;
9950;SDS011;24074;49.254;6.702;2022-12-07T15:31:14;8.50;;;6.07;;
9950;SDS011;24074;49.254;6.702;2022-12-07T15:33:41;10.70;;;6.60;;
9950;SDS011;24074;49.254;6.702;2022-12-07T15:36:07;8.03;;;6.37;;
9950;SDS011;24074;49.254;6.702;2022-12-07T15:38:40;7.43;;;6.27;;
9950;SDS011;24074;49.254;6.702;2022-12-07T15:41:05;9.27;;;7.20;;
9950;SDS011;24074;49.254;6.702;2022-12-07T15:43:31;9.93;;;8.17;;
9950;SDS011;24074;49.254;6.702;2022-12-07T15:46:15;13.97;;;9.17;;
9950;SDS011;24074;49.254;6.702;2022-12-07T15:48:41;11.33;;;7.77;;
9950;SDS011;24074;49.254;6.702;2022-12-07T15:51:07;11.30;;;6.27;;
9950;SDS011;24074;49.254;6.702;2022-12-07T15:53:34;9.50;;;6.87;;
9950;SDS011;24074;49.254;6.702;2022-12-07T15:56:00;11.10;;;6.73;;
9950;SDS011;24074;49.254;6.702;2022-12-07T15:58:26;13.33;;;9.03;;
9950;SDS011;24074;49.254;6.702;2022-12-07T16:00:51;15.93;;;9.57;;
9950;SDS011;24074;49.254;6.702;2022-12-07T16:03:17;11.97;;;9.03;;
9950;SDS011;24074;49.254;6.702;2022-12-07T16:05:48;13.80;;;9.93;;
9950;SDS011;24074;49.254;6.702;2022-12-07T16:08:14;11.47;;;9.00;;
9950;SDS011;24074;49.254;6.702;2022-12-07T16:10:40;12.17;;;9.20;;
9950;SDS011;24074;49.254;6.702;2022-12-07T16:13:08;11.73;;;8.50;;
9950;SDS011;24074;49.254;6.702;2022-12-07T16:16:19;13.43;;;8.87;;
9950;SDS011;24074;49.254;6.702;2022-12-07T16:18:29;11.80;;;7.77;;
9950;SDS011;24074;49.254;6.702;2022-12-07T16:20:54;9.97;;;7.50;;
9950;SDS011;24074;49.254;6.702;2022-12-07T16:23:20;11.90;;;8.60;;
9950;SDS011;24074;49.254;6.702;2022-12-07T16:25:46;14.60;;;8.03;;
9950;SDS011;24074;49.254;6.702;2022-12-07T16:28:11;10.50;;;8.03;;
9950;SDS011;24074;49.254;6.702;2022-12-07T16:30:37;12.80;;;8.23;;
9950;SDS011;24074;49.254;6.702;2022-12-07T16:33:02;11.67;;;8.20;;
9950;SDS011;24074;49.254;6.702;2022-12-07T16:35:28;11.30;;;7.70;;
9950;SDS011;24074;49.254;6.702;2022-12-07T16:37:53;10.13;;;7.20;;
9950;SDS011;24074;49.254;6.702;2022-12-07T16:40:19;12.50;;;7.73;;
9950;SDS011;24074;49.254;6.702;2022-12-07T16:42:44;13.77;;;9.50;;
9950;SDS011;24074;49.254;6.702;2022-12-07T16:45:10;14.63;;;8.70;;
9950;SDS011;24074;49.254;6.702;2022-12-07T16:47:39;13.13;;;8.37;;
9950;SDS011;24074;49.254;6.702;2022-12-07T16:50:05;12.10;;;7.57;;
9950;SDS011;24074;49.254;6.702;2022-12-07T16:52:32;11.57;;;7.87;;
9950;SDS011;24074;49.254;6.702;2022-12-07T16:54:58;12.43;;;7.80;;
9950;SDS011;24074;49.254;6.702;2022-12-07T16:57:24;11.43;;;7.17;;
9950;SDS011;24074;49.254;6.702;2022-12-07T16:59:50;10.10;;;7.83;;
9950;SDS011;24074;49.254;6.702;2022-12-07T17:02:18;11.73;;;7.73;;
9950;SDS011;24074;49.254;6.702;2022-12-07T17:04:44;11.07;;;7.60;;
9950;SDS011;24074;49.254;6.702;2022-12-07T17:07:10;10.30;;;7.20;;
9950;SDS011;24074;49.254;6.702;2022-12-07T17:09:36;12.47;;;7.53;;
9950;SDS011;24074;49.254;6.702;2022-12-07T17:12:02;13.10;;;8.30;;
9950;SDS011;24074;49.254;6.702;2022-12-07T17:14:27;12.13;;;8.00;;
9950;SDS011;24074;49.254;6.702;2022-12-07T17:17:12;11.97;;;8.47;;
9950;SDS011;24074;49.254;6.702;2022-12-07T17:19:37;14.97;;;9.27;;